Time;durP1;ratioP1;P1;durP2;ratioP2;P2;SDS_P1;SDS_P2;PMS_P1;PMS_P2;Temp;Humidity;BMP_temperature;BMP_pressure;BME280_temperature;BME280_humidity;BME280_pressure;Samples;Min_cycle;Max_cycle;Signal;HPM_P1;HPM_P2
2021/04/18 00:02:34;;;;;;;87.70;32.55;;;;;;;4.26;79.52;100984.94;1674103;86;21383;-60
2021/04/18 00:05:40;;;;;;;73.40;34.43;;;;;;;4.23;79.53;100979.73;1674235;84;21635;-59
2021/04/18 00:08:47;;;;;;;52.70;32.05;;;;;;;4.16;79.34;100977.16;1674006;86;21378;-60
2021/04/18 00:11:52;;;;;;;57.45;30.37;;;;;;;4.12;79.39;100977.01;1674428;84;21351;-60
2021/04/18 00:14:59;;;;;;;61.42;30.62;;;;;;;4.13;79.55;100973.34;1673760;86;21390;-59
2021/04/18 00:18:07;;;;;;;64.67;30.45;;;;;;;4.13;79.40;100974.69;1673802;86;21366;-59
2021/04/18 00:21:14;;;;;;;83.52;29.23;;;;;;;4.13;79.44;100976.05;1680693;81;21300;-59
2021/04/18 00:24:20;;;;;;;59.48;28.42;;;;;;;4.12;79.39;100977.01;1710056;80;21798;-59
2021/04/18 00:27:27;;;;;;;53.48;28.98;;;;;;;4.10;79.49;100973.58;1711700;81;21414;-59
2021/04/18 00:30:34;;;;;;;53.87;25.57;;;;;;;4.12;79.74;100966.69;1708095;82;21364;-59
2021/04/18 00:33:40;;;;;;;67.20;26.05;;;;;;;4.13;79.63;100973.34;1688065;82;21259;-59
2021/04/18 00:36:48;;;;;;;50.60;27.32;;;;;;;4.13;79.70;100971.98;1684730;80;21879;-59
2021/04/18 00:39:54;;;;;;;64.97;29.10;;;;;;;4.14;79.81;100975.05;1680763;80;21240;-60
2021/04/18 00:42:59;;;;;;;71.72;27.32;;;;;;;4.12;79.73;100972.11;1684788;82;21295;-60
2021/04/18 00:46:05;;;;;;;67.87;27.95;;;;;;;4.08;79.59;100966.06;1680997;82;21274;-60
2021/04/18 00:49:10;;;;;;;59.50;27.10;;;;;;;4.05;79.64;100969.01;1684614;81;21437;-59
2021/04/18 00:52:15;;;;;;;65.60;26.33;;;;;;;4.07;79.84;100973.83;1689862;81;21246;-59
2021/04/18 00:55:21;;;;;;;81.82;27.70;;;;;;;4.13;80.03;100975.17;1681341;82;21259;-59
2021/04/18 00:58:28;;;;;;;86.65;25.90;;;;;;;4.17;80.03;100977.52;1686484;80;21259;-59
2021/04/18 01:01:35;;;;;;;95.32;24.45;;;;;;;4.20;79.98;100975.08;1698686;81;21376;-58
2021/04/18 01:04:42;;;;;;;94.58;23.40;;;;;;;4.22;79.85;100970.38;1685910;83;21485;-58
2021/04/18 01:07:48;;;;;;;62.93;23.75;;;;;;;4.21;79.62;100970.89;1676284;82;21788;-60
2021/04/18 01:10:56;;;;;;;79.92;23.60;;;;;;;4.18;79.40;100972.48;1689694;82;21236;-59
2021/04/18 01:14:03;;;;;;;56.53;23.47;;;;;;;4.13;79.15;100971.98;1682259;81;21281;-58
2021/04/18 01:17:08;;;;;;;49.73;23.98;;;;;;;4.05;78.87;100968.13;1720520;81;21347;-59
2021/04/18 01:20:21;;;;;;;63.70;23.20;;;;;;;3.98;78.93;100965.55;1667816;83;21422;-58
2021/04/18 01:23:37;;;;;;;43.10;21.97;;;;;;;3.90;78.89;100961.22;1737658;80;21358;-59
2021/04/18 01:26:56;;;;;;;48.63;20.75;;;;;;;3.83;78.84;100960.84;1704839;81;21296;-59
2021/04/18 01:30:03;;;;;;;43.83;20.48;;;;;;;3.75;78.77;100955.15;1674304;83;21244;-59
2021/04/18 01:33:09;;;;;;;43.17;20.55;;;;;;;3.71;78.74;100962.28;1675038;81;21407;-59
2021/04/18 01:36:18;;;;;;;48.13;20.97;;;;;;;3.65;78.76;100948.70;1684338;83;21383;-58
2021/04/18 01:39:23;;;;;;;51.05;19.45;;;;;;;3.68;79.02;100951.69;1710667;79;21226;-59
2021/04/18 01:42:29;;;;;;;48.35;20.88;;;;;;;3.71;79.27;100948.23;1709747;80;21247;-59
2021/04/18 01:45:34;;;;;;;52.48;21.17;;;;;;;3.80;79.57;100953.44;1714886;80;21743;-60
2021/04/18 01:48:42;;;;;;;39.53;20.08;;;;;;;3.87;79.59;100947.41;1697699;81;21249;-58
2021/04/18 01:51:51;;;;;;;29.23;20.02;;;;;;;3.95;79.61;100950.39;1732752;82;21874;-58
2021/04/18 01:54:56;;;;;;;31.30;20.10;;;;;;;4.04;79.50;100956.42;1727972;80;21366;-59
2021/04/18 01:58:02;;;;;;;28.10;17.80;;;;;;;4.10;79.40;100953.74;1722984;82;21255;-60
2021/04/18 02:01:25;;;;;;;;;;;;;;;4.16;79.18;100955.48;1734086;81;21393;-59
2021/04/18 02:04:33;;;;;;;23.65;16.00;;;;;;;4.19;78.98;100949.81;1696669;82;20555;-59
2021/04/18 02:07:41;;;;;;;24.23;16.73;;;;;;;4.23;78.97;100949.93;1693280;81;21327;-60
2021/04/18 02:10:47;;;;;;;26.85;19.00;;;;;;;4.26;78.61;100942.94;1689829;80;21338;-59
2021/04/18 02:13:54;;;;;;;30.02;21.00;;;;;;;4.26;78.55;100943.42;1681370;82;21604;-58
2021/04/18 02:17:05;;;;;;;36.40;22.62;;;;;;;4.32;78.59;100943.80;1689706;81;21320;-59
2021/04/18 02:20:16;;;;;;;32.83;21.40;;;;;;;4.33;78.31;100937.86;1680134;80;21323;-59
2021/04/18 02:23:22;;;;;;;32.35;20.62;;;;;;;4.32;78.20;100935.67;1730700;80;21692;-59
2021/04/18 02:26:27;;;;;;;28.57;18.98;;;;;;;4.36;78.32;100936.29;1707299;79;21672;-59
2021/04/18 02:29:34;;;;;;;26.65;18.42;;;;;;;4.40;78.41;100938.63;1674551;82;21254;-58
2021/04/18 02:32:44;;;;;;;26.73;18.32;;;;;;;4.49;78.61;100937.88;1725370;81;21941;-59
2021/04/18 02:35:49;;;;;;;25.75;18.10;;;;;;;4.53;78.49;100929.84;1738760;81;21264;-59
2021/04/18 02:38:55;;;;;;;25.80;17.35;;;;;;;4.59;78.46;100927.16;1694500;81;21449;-58
2021/04/18 02:42:01;;;;;;;26.07;17.80;;;;;;;4.65;78.51;100925.80;1710214;81;21558;-59
2021/04/18 02:45:07;;;;;;;22.45;16.60;;;;;;;4.73;78.51;100931.44;1697280;81;21619;-59
2021/04/18 02:48:14;;;;;;;26.80;18.05;;;;;;;4.79;78.47;100929.60;1692961;81;21304;-59
2021/04/18 02:51:20;;;;;;;25.55;18.00;;;;;;;4.85;78.45;100929.09;1726833;82;21882;-59
2021/04/18 02:54:25;;;;;;;23.95;17.05;;;;;;;4.90;78.29;100936.36;1711082;80;21374;-58
2021/04/18 02:57:33;;;;;;;23.05;16.12;;;;;;;4.96;78.08;100923.64;1700512;80;21218;-60
2021/04/18 03:00:39;;;;;;;22.32;15.85;;;;;;;4.99;77.85;100930.17;1735899;80;21390;-60
2021/04/18 03:03:43;;;;;;;23.27;16.52;;;;;;;5.03;77.74;100939.76;1735150;82;21231;-60
2021/04/18 03:06:50;;;;;;;30.15;17.87;;;;;;;5.09;77.67;100933.85;1682610;83;21335;-58
2021/04/18 03:09:56;;;;;;;26.33;18.35;;;;;;;5.11;77.39;100932.72;1672241;83;21404;-58
2021/04/18 03:13:02;;;;;;;26.68;17.92;;;;;;;5.13;77.19;100932.59;1676859;80;21407;-59
2021/04/18 03:16:09;;;;;;;24.90;17.40;;;;;;;5.13;77.13;100929.39;1697613;83;21372;-59
2021/04/18 03:19:16;;;;;;;28.60;17.85;;;;;;;5.17;76.98;100927.30;1704199;81;21375;-60
2021/04/18 03:22:23;;;;;;;22.17;16.25;;;;;;;5.16;76.79;100927.78;1695387;81;21384;-58
2021/04/18 03:25:29;;;;;;;30.35;19.82;;;;;;;5.16;76.74;100930.48;1668581;82;21272;-59
2021/04/18 03:28:37;;;;;;;24.00;18.40;;;;;;;5.12;76.71;100937.14;1711394;81;22808;-59
2021/04/18 03:31:42;;;;;;;24.67;17.12;;;;;;;5.11;76.82;100936.79;1690906;81;21262;-61
2021/04/18 03:34:49;;;;;;;25.70;18.00;;;;;;;5.14;76.98;100942.47;1698244;81;21882;-59
2021/04/18 03:37:56;;;;;;;25.08;18.32;;;;;;;5.23;77.42;100936.27;1702437;81;21396;-59
2021/04/18 03:41:03;;;;;;;27.42;19.02;;;;;;;5.32;77.47;100930.06;1738428;81;21354;-60
2021/04/18 03:44:10;;;;;;;27.75;18.95;;;;;;;5.39;77.45;100929.41;1672888;81;21295;-59
2021/04/18 03:47:16;;;;;;;26.52;19.00;;;;;;;5.48;77.59;100924.58;1669840;82;21275;-59
2021/04/18 03:50:26;;;;;;;32.53;20.20;;;;;;;5.54;77.88;100932.19;1733014;80;21783;-60
2021/04/18 03:53:42;;;;;;;27.15;19.57;;;;;;;5.67;78.06;100934.72;1732410;81;21495;-59
2021/04/18 03:56:50;;;;;;;29.00;19.77;;;;;;;5.77;78.13;100931.59;1732313;82;21918;-60
2021/04/18 03:59:55;;;;;;;27.85;19.15;;;;;;;5.85;78.04;100930.47;1697312;80;21279;-60
2021/04/18 04:03:04;;;;;;;27.48;18.42;;;;;;;5.92;78.05;100933.00;1705434;81;21295;-60
2021/04/18 04:06:13;;;;;;;27.58;19.05;;;;;;;5.99;78.00;100935.56;1745199;82;21417;-59
2021/04/18 04:09:20;;;;;;;27.13;19.25;;;;;;;6.04;77.84;100932.79;1682310;84;21963;-59
2021/04/18 04:12:27;;;;;;;28.85;20.68;;;;;;;6.08;77.71;100940.19;1739796;82;21412;-60
2021/04/18 04:15:33;;;;;;;31.60;20.43;;;;;;;6.09;77.56;100931.02;1697572;82;21787;-60
2021/04/18 04:18:39;;;;;;;30.68;19.95;;;;;;;6.08;77.23;100920.67;1694628;81;21231;-59
2021/04/18 04:21:50;;;;;;;27.95;20.02;;;;;;;6.10;77.28;100921.37;1698167;82;21240;-59
2021/04/18 04:25:15;;;;;;;35.80;22.55;;;;;;;6.18;77.29;100922.58;1722843;81;21962;-59
2021/04/18 04:28:20;;;;;;;34.38;22.10;;;;;;;6.28;77.43;100921.63;1675315;82;21244;-59
2021/04/18 04:31:26;;;;;;;33.65;22.65;;;;;;;6.37;77.33;100919.47;1691746;81;21800;-60
2021/04/18 04:34:33;;;;;;;32.48;21.75;;;;;;;6.43;77.62;100917.56;1694917;80;21413;-59
2021/04/18 04:37:39;;;;;;;31.85;23.35;;;;;;;6.58;77.77;100921.61;1697208;81;21294;-61
2021/04/18 04:40:44;;;;;;;28.98;21.55;;;;;;;6.71;77.57;100911.84;1704630;81;21288;-59
2021/04/18 04:43:53;;;;;;;36.28;23.60;;;;;;;6.86;77.50;100912.70;1736457;82;21366;-60
2021/04/18 04:46:58;;;;;;;32.65;22.60;;;;;;;7.00;77.42;100912.80;1737468;82;21295;-59
2021/04/18 04:50:04;;;;;;;34.73;23.85;;;;;;;7.09;77.15;100913.30;1741345;81;21373;-59
2021/04/18 04:53:10;;;;;;;33.45;23.30;;;;;;;7.17;76.79;100914.33;1708525;81;21327;-59
2021/04/18 04:56:16;;;;;;;32.90;23.38;;;;;;;7.25;76.49;100911.77;1698766;80;21285;-60
2021/04/18 04:59:24;;;;;;;32.63;23.25;;;;;;;7.34;76.39;100905.98;1693204;81;21906;-59
2021/04/18 05:02:30;;;;;;;33.70;22.80;;;;;;;7.44;76.27;100910.42;1709837;80;21443;-59
2021/04/18 05:05:37;;;;;;;32.98;21.97;;;;;;;7.57;76.52;100912.36;1739727;81;21396;-60
2021/04/18 05:08:43;;;;;;;35.58;22.27;;;;;;;7.73;76.52;100913.62;1704731;82;21374;-59
2021/04/18 05:11:48;;;;;;;34.43;24.98;;;;;;;7.84;76.19;100902.56;1671875;82;21261;-60
2021/04/18 05:14:54;;;;;;;37.42;22.87;;;;;;;7.95;76.18;100909.22;1670959;82;21390;-59
2021/04/18 05:17:59;;;;;;;32.42;21.77;;;;;;;8.03;76.14;100901.17;1686507;81;21260;-60
2021/04/18 05:21:07;;;;;;;30.97;21.80;;;;;;;8.11;76.21;100903.53;1689651;81;21358;-59
2021/04/18 05:24:13;;;;;;;31.85;23.07;;;;;;;8.18;76.24;100899.18;1709431;80;21365;-60
2021/04/18 05:27:18;;;;;;;29.95;21.55;;;;;;;8.29;76.31;100894.95;1713323;80;21238;-60
2021/04/18 05:30:26;;;;;;;28.23;20.35;;;;;;;8.46;76.15;100905.59;1738493;81;21475;-60
2021/04/18 05:33:33;;;;;;;29.30;19.82;;;;;;;8.61;75.97;100898.13;1725943;79;21230;-60
2021/04/18 05:36:41;;;;;;;32.35;20.50;;;;;;;8.75;75.67;100895.41;1703840;80;21307;-60
2021/04/18 05:39:47;;;;;;;30.77;20.65;;;;;;;8.90;75.55;100895.24;1680664;82;21906;-60
2021/04/18 05:42:52;;;;;;;29.40;21.20;;;;;;;9.07;75.22;100888.95;1670733;82;21604;-60
2021/04/18 05:45:58;;;;;;;29.65;20.70;;;;;;;9.23;74.87;100885.56;1706602;80;21366;-60
2021/04/18 05:49:04;;;;;;;33.50;21.02;;;;;;;9.37;74.26;100894.05;1691566;79;21390;-59
2021/04/18 05:52:10;;;;;;;28.23;19.87;;;;;;;9.55;73.89;100894.05;1670706;83;21322;-60
2021/04/18 05:55:17;;;;;;;23.30;17.07;;;;;;;9.69;73.28;100894.36;1676954;82;21279;-59
2021/04/18 05:58:22;;;;;;;23.73;17.60;;;;;;;9.86;72.59;100905.77;1724622;82;21377;-61
2021/04/18 06:01:29;;;;;;;25.70;19.07;;;;;;;9.99;71.99;100902.66;1668340;84;21259;-59
2021/04/18 06:04:36;;;;;;;22.73;17.65;;;;;;;10.15;71.53;100900.91;1726655;81;21276;-60
2021/04/18 06:07:43;;;;;;;19.92;15.55;;;;;;;10.32;71.16;100899.98;1680146;81;21342;-59
2021/04/18 06:10:48;;;;;;;24.95;17.30;;;;;;;10.49;70.30;100899.09;1749159;81;21370;-60
2021/04/18 06:13:53;;;;;;;19.20;15.43;;;;;;;10.65;69.66;100897.44;1678885;84;21853;-59
2021/04/18 06:16:59;;;;;;;19.15;15.00;;;;;;;10.83;68.89;100896.85;1689303;80;21313;-60
2021/04/18 06:20:04;;;;;;;17.55;14.05;;;;;;;10.99;67.57;100901.02;1704424;83;21254;-61
2021/04/18 06:23:11;;;;;;;19.35;14.50;;;;;;;11.13;66.53;100901.75;1695993;82;21249;-59
2021/04/18 06:26:16;;;;;;;20.12;13.62;;;;;;;11.23;66.07;100896.46;1747266;80;21418;-60
2021/04/18 06:29:23;;;;;;;23.55;15.53;;;;;;;11.32;65.10;100891.87;1694291;83;21317;-60
2021/04/18 06:32:30;;;;;;;20.85;14.35;;;;;;;11.43;64.50;100886.90;1690896;80;21842;-60
2021/04/18 06:35:36;;;;;;;16.85;13.65;;;;;;;11.60;64.10;100891.90;1690043;81;21246;-60
2021/04/18 06:38:42;;;;;;;13.68;11.30;;;;;;;11.72;63.15;100891.93;1744028;79;21474;-60
2021/04/18 06:41:48;;;;;;;14.83;12.07;;;;;;;11.83;62.27;100897.08;1710606;81;21342;-60
2021/04/18 06:44:54;;;;;;;15.88;10.93;;;;;;;11.97;61.96;100895.04;1688245;80;21238;-60
2021/04/18 06:48:01;;;;;;;16.57;11.65;;;;;;;12.07;60.93;100890.75;1698859;81;21373;-59
2021/04/18 06:51:07;;;;;;;14.87;11.05;;;;;;;12.14;60.19;100891.75;1710213;80;21418;-60
2021/04/18 06:54:13;;;;;;;12.95;11.20;;;;;;;12.20;59.25;100892.42;1706822;79;21272;-61
2021/04/18 06:57:18;;;;;;;10.90;9.50;;;;;;;12.25;59.01;100890.88;1701235;80;21827;-59
2021/04/18 07:00:25;;;;;;;13.08;8.70;;;;;;;12.36;59.01;100890.52;1716793;81;21919;-60
2021/04/18 07:03:32;;;;;;;13.05;9.65;;;;;;;12.41;58.27;100894.97;1708382;79;21392;-61
2021/04/18 07:06:48;;;;;;;10.93;9.43;;;;;;;12.44;57.40;100891.88;1710004;80;21257;-61
2021/04/18 07:09:54;;;;;;;10.03;8.88;;;;;;;12.46;56.75;100893.94;1711202;79;21453;-61
2021/04/18 07:12:59;;;;;;;10.60;9.28;;;;;;;12.47;56.60;100890.14;1702314;81;21640;-60
2021/04/18 07:16:06;;;;;;;10.32;8.50;;;;;;;12.51;56.74;100886.54;1704278;80;21295;-61
2021/04/18 07:19:12;;;;;;;11.57;8.65;;;;;;;12.62;56.52;100880.13;1684565;81;21363;-61
2021/04/18 07:22:20;;;;;;;11.03;9.33;;;;;;;12.74;56.00;100877.36;1685707;81;21325;-62
2021/04/18 07:25:27;;;;;;;10.03;8.98;;;;;;;12.78;55.74;100873.20;1688545;80;21415;-61
2021/04/18 07:28:37;;;;;;;11.50;8.30;;;;;;;12.73;55.83;100870.13;1711454;80;21264;-62
2021/04/18 07:31:42;;;;;;;8.78;7.75;;;;;;;12.69;56.14;100868.78;1682788;82;22028;-62
2021/04/18 07:34:49;;;;;;;9.78;8.10;;;;;;;12.61;54.96;100864.69;1751034;79;21380;-60
2021/04/18 07:37:57;;;;;;;11.00;8.20;;;;;;;12.58;55.06;100863.67;1753657;81;21764;-61
2021/04/18 07:41:03;;;;;;;9.98;8.03;;;;;;;12.55;55.48;100859.91;1745055;80;21791;-60
2021/04/18 07:44:15;;;;;;;9.30;8.30;;;;;;;12.59;55.26;100863.17;1749577;82;21373;-61
2021/04/18 07:47:17;;;;;;;11.88;8.10;;;;;;;12.61;55.12;100856.45;1749556;82;21362;-60
2021/04/18 07:50:26;;;;;;;9.78;8.40;;;;;;;12.75;55.47;100849.38;1750207;81;21732;-60
2021/04/18 07:53:33;;;;;;;8.58;7.67;;;;;;;12.83;55.01;100852.92;1749121;81;21903;-60
2021/04/18 07:56:39;;;;;;;8.88;7.37;;;;;;;12.97;55.22;100847.20;1681555;82;21249;-60
2021/04/18 07:59:45;;;;;;;9.98;8.65;;;;;;;13.11;54.19;100845.09;1675740;82;21257;-60
2021/04/18 08:02:55;;;;;;;11.00;8.38;;;;;;;13.23;53.55;100839.50;1729176;81;21244;-59
2021/04/18 08:06:01;;;;;;;10.55;8.05;;;;;;;13.33;53.81;100840.97;1716850;83;21281;-60
2021/04/18 08:09:07;;;;;;;10.75;8.25;;;;;;;13.51;52.99;100831.05;1711613;82;21866;-62
2021/04/18 08:12:22;;;;;;;10.18;9.08;;;;;;;13.76;52.72;100830.34;1665067;84;21253;-61
2021/04/18 08:15:29;;;;;;;10.43;8.55;;;;;;;13.81;52.23;100824.59;1666278;83;21250;-62
2021/04/18 08:18:39;;;;;;;8.45;6.33;;;;;;;13.85;52.25;100826.46;1684498;83;21373;-60
2021/04/18 08:21:47;;;;;;;7.28;6.22;;;;;;;14.04;50.51;100813.03;1692291;82;21212;-61
2021/04/18 08:24:53;;;;;;;9.25;7.53;;;;;;;14.14;49.74;100805.88;1702512;80;21595;-60
2021/04/18 08:28:16;;;;;;;8.55;7.65;;;;;;;14.29;48.55;100805.38;1707038;79;21236;-60
2021/04/18 08:31:23;;;;;;;8.58;6.95;;;;;;;14.46;48.62;100800.04;1709013;78;21819;-60
2021/04/18 08:34:44;;;;;;;8.13;7.05;;;;;;;14.75;48.64;100789.83;1706569;79;21584;-60
2021/04/18 08:37:51;;;;;;;8.70;7.45;;;;;;;15.04;48.27;100783.39;1708249;80;21289;-60
2021/04/18 08:40:56;;;;;;;7.55;6.00;;;;;;;15.36;46.82;100792.56;1710399;79;21232;-60
2021/04/18 08:44:07;;;;;;;10.55;6.85;;;;;;;15.62;46.68;100780.41;1687124;81;21218;-61
2021/04/18 08:47:16;;;;;;;8.73;7.17;;;;;;;15.85;46.13;100780.19;1708389;79;21372;-60
2021/04/18 08:50:24;;;;;;;7.58;6.47;;;;;;;15.98;44.77;100789.96;1695906;82;21393;-61
2021/04/18 08:53:29;;;;;;;8.73;7.08;;;;;;;15.97;44.81;100773.05;1702616;81;21300;-61
2021/04/18 08:56:58;;;;;;;8.30;7.15;;;;;;;16.00;44.09;100776.27;1697047;81;21254;-61
2021/04/18 09:00:06;;;;;;;10.65;7.70;;;;;;;16.02;43.67;100759.49;1730977;81;21374;-60
2021/04/18 09:03:13;;;;;;;10.18;8.08;;;;;;;16.08;44.37;100761.44;1694775;83;21330;-60
2021/04/18 09:06:29;;;;;;;7.60;6.80;;;;;;;16.06;43.88;100751.97;1696712;82;21390;-60
2021/04/18 09:09:27;;;;;;;9.18;6.80;;;;;;;16.05;43.55;100750.28;1668494;84;21328;-62
2021/04/18 09:12:34;;;;;;;8.90;8.00;;;;;;;16.11;43.84;100754.98;1703273;80;21385;-61
2021/04/18 09:15:40;;;;;;;11.30;8.75;;;;;;;16.17;44.22;100754.72;1700442;80;21283;-60
2021/04/18 09:18:49;;;;;;;10.43;7.95;;;;;;;16.29;43.65;100758.09;1687398;84;21236;-60
2021/04/18 09:22:19;;;;;;;8.55;6.75;;;;;;;16.26;42.87;100752.98;1688246;82;21371;-60
2021/04/18 09:25:26;;;;;;;8.73;6.78;;;;;;;16.17;42.12;100756.10;1691035;84;21446;-61
2021/04/18 09:28:31;;;;;;;10.40;7.42;;;;;;;16.11;41.56;100759.68;1696400;83;21247;-60
2021/04/18 09:31:37;;;;;;;6.92;5.65;;;;;;;15.97;42.04;100742.15;1737811;80;21307;-60
2021/04/18 09:34:44;;;;;;;8.43;6.00;;;;;;;15.93;42.17;100740.86;1707735;81;21251;-60
2021/04/18 09:38:10;;;;;;;8.55;6.87;;;;;;;15.92;42.13;100739.69;1683797;84;21405;-61
2021/04/18 09:41:17;;;;;;;8.58;6.97;;;;;;;15.91;42.80;100738.83;1683290;81;21272;-61
2021/04/18 09:44:45;;;;;;;7.60;6.65;;;;;;;16.00;43.28;100742.27;1709321;80;21243;-62
2021/04/18 09:47:57;;;;;;;9.08;7.47;;;;;;;16.09;42.97;100739.14;1702112;82;21251;-60
2021/04/18 09:51:09;;;;;;;10.18;7.30;;;;;;;16.27;42.89;100743.62;1742190;78;21468;-60
2021/04/18 09:54:16;;;;;;;10.13;7.22;;;;;;;16.38;42.77;100738.89;1737908;81;21386;-60
2021/04/18 09:57:28;;;;;;;9.03;7.95;;;;;;;16.39;42.57;100719.03;1701850;81;21213;-60
2021/04/18 10:00:43;;;;;;;8.93;7.97;;;;;;;16.37;42.31;100728.91;1708674;81;21254;-60
2021/04/18 10:03:50;;;;;;;9.48;7.37;;;;;;;16.34;42.38;100729.33;1698710;81;21262;-60
2021/04/18 10:06:58;;;;;;;10.38;7.90;;;;;;;16.41;42.17;100726.05;1708306;82;21237;-61
2021/04/18 10:10:04;;;;;;;10.03;8.60;;;;;;;16.42;41.58;100733.30;1685466;83;21303;-60
2021/04/18 10:13:10;;;;;;;9.35;8.35;;;;;;;16.35;41.85;100724.63;1714780;83;21261;-61
2021/04/18 10:16:18;;;;;;;13.18;8.30;;;;;;;16.36;42.02;100727.19;1651733;83;21619;-62
2021/04/18 10:19:28;;;;;;;9.05;7.78;;;;;;;16.29;42.18;100722.17;1714362;82;21287;-61
2021/04/18 10:22:34;;;;;;;9.18;7.40;;;;;;;16.24;41.90;100721.92;1687056;84;21302;-61
2021/04/18 10:25:39;;;;;;;8.70;7.45;;;;;;;16.22;41.94;100719.06;1660300;82;21268;-60
2021/04/18 10:28:46;;;;;;;9.08;7.53;;;;;;;16.23;41.92;100730.42;1682921;83;21304;-59
2021/04/18 10:31:51;;;;;;;7.62;6.83;;;;;;;16.18;42.23;100718.61;1673838;81;21288;-62
2021/04/18 10:34:58;;;;;;;8.53;7.08;;;;;;;16.21;42.31;100715.44;1678367;81;21286;-61
2021/04/18 10:38:04;;;;;;;8.08;7.28;;;;;;;16.18;42.67;100713.08;1689619;82;21234;-60
2021/04/18 10:41:11;;;;;;;9.70;7.53;;;;;;;16.10;42.79;100720.66;1685697;81;21257;-60
2021/04/18 10:44:17;;;;;;;12.05;7.42;;;;;;;15.99;42.84;100725.37;1690997;82;21782;-60
2021/04/18 10:47:24;;;;;;;7.47;6.45;;;;;;;15.88;43.10;100714.89;1713618;78;21368;-60
2021/04/18 10:50:30;;;;;;;10.60;8.13;;;;;;;15.83;43.37;100716.89;1680618;83;21792;-62
2021/04/18 10:53:35;;;;;;;12.85;7.97;;;;;;;15.86;42.90;100714.23;1699129;80;21240;-60
2021/04/18 10:56:42;;;;;;;11.65;7.30;;;;;;;16.00;42.74;100714.64;1702425;80;21239;-61
2021/04/18 10:59:47;;;;;;;6.97;5.53;;;;;;;16.17;42.81;100714.67;1709715;80;21830;-61
2021/04/18 11:02:53;;;;;;;5.97;4.62;;;;;;;16.23;42.14;100705.55;1704254;82;21232;-61
2021/04/18 11:05:59;;;;;;;7.90;5.00;;;;;;;16.27;41.91;100703.55;1707762;80;21249;-60
2021/04/18 11:09:04;;;;;;;7.30;5.05;;;;;;;16.35;41.05;100703.91;1701938;81;21772;-60
2021/04/18 11:12:12;;;;;;;7.37;4.80;;;;;;;16.46;40.66;100696.99;1681386;81;21274;-61
2021/04/18 11:15:20;;;;;;;6.05;5.20;;;;;;;16.59;40.54;100700.65;1675278;82;21355;-61
2021/04/18 11:18:27;;;;;;;9.08;5.53;;;;;;;16.75;40.60;100689.74;1723607;81;21232;-60
2021/04/18 11:21:34;;;;;;;6.60;4.90;;;;;;;16.82;41.04;100702.55;1682959;83;21621;-60
2021/04/18 11:24:42;;;;;;;6.83;5.50;;;;;;;16.86;40.32;100694.66;1707217;80;21439;-60
2021/04/18 11:27:48;;;;;;;6.42;5.10;;;;;;;16.88;39.76;100698.08;1701876;80;21217;-60
2021/04/18 11:30:55;;;;;;;7.95;5.37;;;;;;;16.87;39.33;100689.47;1705946;80;21377;-60
2021/04/18 11:34:01;;;;;;;9.25;5.53;;;;;;;16.94;39.77;100694.47;1709036;79;21242;-59
2021/04/18 11:37:06;;;;;;;8.50;7.22;;;;;;;17.05;39.68;100686.94;1707204;79;21448;-60
2021/04/18 11:40:16;;;;;;;8.33;4.72;;;;;;;17.11;39.31;100680.04;1711074;78;21419;-61
2021/04/18 11:43:21;;;;;;;6.12;4.20;;;;;;;17.19;39.13;100673.44;1704776;80;21302;-61
2021/04/18 11:46:31;;;;;;;4.60;4.00;;;;;;;17.30;38.99;100676.44;1735495;81;21239;-60
2021/04/18 11:49:39;;;;;;;6.67;4.50;;;;;;;17.37;38.76;100675.92;1710439;81;21317;-60
2021/04/18 11:52:45;;;;;;;6.30;4.15;;;;;;;17.32;38.81;100679.86;1709334;80;21284;-60
2021/04/18 11:55:52;;;;;;;5.75;4.42;;;;;;;17.16;38.68;100681.64;1702154;80;21245;-61
2021/04/18 11:58:57;;;;;;;6.87;4.22;;;;;;;16.95;38.25;100678.22;1710500;80;21295;-60
2021/04/18 12:02:04;;;;;;;7.15;4.95;;;;;;;16.73;38.81;100678.06;1707286;81;21278;-61
2021/04/18 12:05:10;;;;;;;8.58;4.30;;;;;;;16.47;38.91;100673.81;1704348;80;21813;-60
2021/04/18 12:08:16;;;;;;;5.60;4.55;;;;;;;16.20;39.69;100672.30;1703791;81;21608;-61
2021/04/18 12:11:23;;;;;;;7.42;3.80;;;;;;;16.01;39.84;100672.19;1710287;81;21409;-60
2021/04/18 12:14:30;;;;;;;6.17;4.97;;;;;;;15.89;40.06;100666.89;1689027;82;21266;-61
2021/04/18 12:17:37;;;;;;;8.78;6.80;;;;;;;15.82;40.54;100666.02;1710107;79;21285;-60
2021/04/18 12:20:44;;;;;;;9.40;6.67;;;;;;;15.77;40.70;100659.73;1715397;80;22066;-60
2021/04/18 12:23:50;;;;;;;11.68;7.30;;;;;;;15.65;40.96;100659.95;1718871;80;21208;-61
2021/04/18 12:26:55;;;;;;;7.03;5.72;;;;;;;15.58;41.41;100660.96;1711430;81;21221;-60
2021/04/18 12:30:02;;;;;;;6.58;4.97;;;;;;;15.53;41.43;100657.95;1707971;81;21237;-61
2021/04/18 12:33:07;;;;;;;5.85;4.87;;;;;;;15.42;41.57;100662.64;1720824;80;21314;-61
2021/04/18 12:36:15;;;;;;;7.87;5.60;;;;;;;15.29;42.25;100661.11;1693053;82;21227;-60
2021/04/18 12:39:21;;;;;;;7.17;4.78;;;;;;;15.19;42.19;100660.62;1724703;79;21441;-61
2021/04/18 12:42:28;;;;;;;5.42;4.28;;;;;;;15.10;42.71;100657.13;1722713;79;21348;-61
2021/04/18 12:45:33;;;;;;;8.33;5.45;;;;;;;14.99;43.00;100657.16;1718580;81;21268;-62
2021/04/18 12:48:40;;;;;;;7.03;5.85;;;;;;;14.87;43.06;100655.95;1696979;82;21799;-61
2021/04/18 12:51:46;;;;;;;9.35;6.62;;;;;;;14.73;43.30;100669.82;1679292;83;21299;-60
2021/04/18 12:54:52;;;;;;;7.95;6.08;;;;;;;14.58;43.59;100662.98;1683855;85;21231;-61
2021/04/18 12:58:01;;;;;;;7.47;5.92;;;;;;;14.47;44.02;100658.48;1684677;82;21379;-60
2021/04/18 13:01:11;;;;;;;10.15;7.47;;;;;;;14.40;44.46;100661.67;1675301;83;21225;-60
2021/04/18 13:04:18;;;;;;;23.05;15.08;;;;;;;14.34;44.42;100659.19;1681321;81;21401;-61
2021/04/18 13:07:23;;;;;;;12.90;9.53;;;;;;;14.29;44.10;100664.41;1681778;80;21291;-61
2021/04/18 13:10:29;;;;;;;9.40;5.87;;;;;;;14.20;43.46;100665.55;1683332;82;21174;-60
2021/04/18 13:13:36;;;;;;;6.35;4.65;;;;;;;14.11;43.46;100661.17;1711735;80;21202;-60
2021/04/18 13:16:45;;;;;;;6.53;4.87;;;;;;;14.03;43.62;100665.95;1690451;82;21777;-60
2021/04/18 13:19:52;;;;;;;13.15;8.35;;;;;;;13.96;43.97;100658.11;1707016;80;21333;-62
2021/04/18 13:23:00;;;;;;;9.03;6.22;;;;;;;13.92;44.10;100667.27;1715716;80;21424;-61
2021/04/18 13:26:07;;;;;;;7.00;4.75;;;;;;;13.89;44.50;100662.69;1706328;79;21383;-61
2021/04/18 13:29:12;;;;;;;4.80;4.28;;;;;;;13.85;44.64;100659.97;1708921;80;21364;-61
2021/04/18 13:32:19;;;;;;;7.15;4.92;;;;;;;13.80;44.69;100655.55;1712243;80;21437;-61
2021/04/18 13:35:25;;;;;;;10.68;7.10;;;;;;;13.74;44.85;100662.67;1712538;80;21332;-61
2021/04/18 13:38:34;;;;;;;8.35;5.72;;;;;;;13.69;45.18;100666.52;1710796;80;21390;-60
2021/04/18 13:41:42;;;;;;;13.90;9.35;;;;;;;13.63;45.41;100670.54;1704701;80;21398;-61
2021/04/18 13:44:48;;;;;;;17.87;12.20;;;;;;;13.55;47.40;100707.25;1744012;80;21720;-61
2021/04/18 13:47:55;;;;;;;18.48;14.43;;;;;;;13.16;53.11;100692.30;1687233;83;21252;-60
2021/04/18 13:51:02;;;;;;;20.20;14.85;;;;;;;12.68;55.82;100702.27;1682885;80;21461;-62
2021/04/18 13:54:08;;;;;;;20.00;15.05;;;;;;;12.25;58.40;100701.48;1682413;81;21523;-61
2021/04/18 13:57:15;;;;;;;20.85;14.85;;;;;;;11.92;60.15;100700.73;1695515;82;21310;-60
2021/04/18 14:00:23;;;;;;;19.05;14.85;;;;;;;11.65;61.78;100708.55;1703052;84;21276;-60
2021/04/18 14:03:28;;;;;;;23.45;15.60;;;;;;;11.47;62.92;100710.59;1741060;80;21248;-60
2021/04/18 14:06:36;;;;;;;23.57;14.95;;;;;;;11.34;64.26;100709.75;1692916;81;21465;-60
2021/04/18 14:09:42;;;;;;;24.57;15.80;;;;;;;11.21;64.75;100720.91;1690556;82;21239;-59
2021/04/18 14:12:49;;;;;;;20.40;15.80;;;;;;;11.17;65.89;100725.00;1682418;83;21220;-60
2021/04/18 14:15:58;;;;;;;21.35;16.10;;;;;;;11.03;66.43;100716.10;1709785;81;21768;-60
2021/04/18 14:19:05;;;;;;;24.75;17.37;;;;;;;10.97;67.10;100734.59;1693678;81;21390;-60
2021/04/18 14:22:13;;;;;;;23.32;18.35;;;;;;;10.88;67.75;100728.77;1701163;82;21385;-61
2021/04/18 14:25:20;;;;;;;25.55;18.85;;;;;;;10.78;68.34;100731.67;1700147;80;21397;-61